Time;durP1;ratioP1;P1;durP2;ratioP2;P2;SDS_P1;SDS_P2;PMS_P1;PMS_P2;Temp;Humidity;BMP_temperature;BMP_pressure;BME280_temperature;BME280_humidity;BME280_pressure;Samples;Min_cycle;Max_cycle;Signal;HPM_P1;HPM_P2
2023/04/27 00:01:32;;;;;;;14.20;10.73;;;2.40;99.90;;;;;;4862360;29;20478;-89
2023/04/27 00:03:58;;;;;;;15.38;10.75;;;2.40;99.90;;;;;;4875157;29;20422;-89
2023/04/27 00:06:25;;;;;;;14.85;10.48;;;2.30;99.90;;;;;;4862247;29;21000;-90
2023/04/27 00:08:51;;;;;;;14.68;10.07;;;2.30;99.90;;;;;;4860029;29;20435;-89
2023/04/27 00:11:16;;;;;;;12.10;9.82;;;2.30;99.90;;;;;;4860842;29;20418;-88
2023/04/27 00:13:42;;;;;;;13.63;9.93;;;2.30;99.90;;;;;;4861397;29;20487;-89
2023/04/27 00:16:07;;;;;;;12.20;8.67;;;2.20;99.90;;;;;;4875875;29;20431;-90
2023/04/27 00:18:33;;;;;;;10.80;8.50;;;2.20;99.90;;;;;;4861611;29;20419;-89
2023/04/27 00:20:59;;;;;;;11.52;9.95;;;2.20;99.90;;;;;;4859638;29;20473;-89
2023/04/27 00:23:25;;;;;;;13.73;9.57;;;2.10;99.90;;;;;;4861633;29;20423;-90
2023/04/27 00:25:50;;;;;;;14.02;9.52;;;2.10;99.90;;;;;;4859760;29;20427;-89
2023/04/27 00:28:16;;;;;;;11.00;9.33;;;2.10;99.90;;;;;;4861515;29;20796;-88
2023/04/27 00:30:41;;;;;;;12.50;9.37;;;2.00;99.90;;;;;;4860612;29;21085;-88
2023/04/27 00:33:07;;;;;;;11.50;8.85;;;2.00;99.90;;;;;;4860225;29;20453;-89
2023/04/27 00:35:33;;;;;;;12.63;8.10;;;1.90;99.90;;;;;;4876691;29;20421;-89
2023/04/27 00:37:58;;;;;;;12.40;9.13;;;2.00;99.90;;;;;;4875428;29;20920;-88
2023/04/27 00:40:24;;;;;;;12.77;8.57;;;1.90;99.90;;;;;;4861439;29;20434;-89
2023/04/27 00:42:49;;;;;;;12.27;9.33;;;2.10;99.90;;;;;;4859234;29;20415;-88
2023/04/27 00:45:15;;;;;;;10.83;8.30;;;2.00;99.90;;;;;;4861303;29;20418;-90
2023/04/27 00:47:42;;;;;;;10.40;8.13;;;2.00;99.90;;;;;;4874770;29;20974;-88
2023/04/27 00:50:09;;;;;;;10.93;8.35;;;2.10;99.90;;;;;;4860289;29;20505;-89
2023/04/27 00:52:39;;;;;;;11.48;8.77;;;2.10;99.90;;;;;;4860129;29;20435;-88
2023/04/27 00:55:06;;;;;;;12.57;9.20;;;2.10;99.90;;;;;;4858613;29;20430;-89
2023/04/27 00:57:33;;;;;;;11.32;8.43;;;2.20;99.90;;;;;;4876710;29;20433;-89
2023/04/27 00:59:59;;;;;;;11.02;8.57;;;2.20;99.90;;;;;;4859015;29;20488;-89
2023/04/27 01:02:25;;;;;;;11.27;7.95;;;2.20;99.90;;;;;;4877186;29;20422;-90
2023/04/27 01:04:52;;;;;;;12.00;8.50;;;2.30;99.90;;;;;;4859381;29;20415;-89
2023/04/27 01:07:17;;;;;;;11.13;8.32;;;2.20;99.90;;;;;;4876066;29;20465;-88
2023/04/27 01:09:43;;;;;;;11.87;8.20;;;2.20;99.90;;;;;;4875520;29;20491;-88
2023/04/27 01:12:09;;;;;;;11.07;8.10;;;2.30;99.90;;;;;;4859823;29;20427;-88
2023/04/27 01:14:36;;;;;;;10.88;7.82;;;2.20;99.90;;;;;;4860714;29;20514;-89
2023/04/27 01:17:01;;;;;;;10.52;8.05;;;2.20;99.90;;;;;;4858965;29;20471;-89
2023/04/27 01:19:27;;;;;;;14.55;10.07;;;2.20;99.90;;;;;;4860741;29;20805;-89
2023/04/27 01:21:53;;;;;;;14.35;10.15;;;2.10;99.90;;;;;;4858436;29;20415;-89
2023/04/27 01:24:19;;;;;;;12.75;9.20;;;2.10;99.90;;;;;;4860742;29;20422;-89
2023/04/27 01:26:44;;;;;;;15.38;10.90;;;2.00;99.90;;;;;;4859040;29;20411;-89
2023/04/27 01:29:10;;;;;;;10.83;9.10;;;2.00;99.90;;;;;;4860057;29;20407;-90
2023/04/27 01:31:35;;;;;;;13.77;9.07;;;2.00;99.90;;;;;;4859821;29;20475;-88
2023/04/27 01:34:01;;;;;;;15.32;10.98;;;1.90;99.90;;;;;;4858623;29;20470;-89
2023/04/27 01:36:27;;;;;;;14.63;10.57;;;1.90;99.90;;;;;;4876062;29;20415;-87
2023/04/27 01:38:52;;;;;;;11.80;9.57;;;1.80;99.90;;;;;;4858174;29;20418;-88
2023/04/27 01:41:18;;;;;;;12.73;9.68;;;1.90;99.90;;;;;;4859825;29;20419;-89
2023/04/27 01:43:43;;;;;;;12.63;9.10;;;1.80;99.90;;;;;;4873907;29;20427;-89
2023/04/27 01:46:13;;;;;;;13.40;9.93;;;1.80;99.90;;;;;;4875674;29;20418;-89
2023/04/27 01:48:40;;;;;;;16.17;11.13;;;1.80;99.90;;;;;;4859160;29;20446;-88
2023/04/27 01:51:06;;;;;;;16.13;11.15;;;1.70;99.90;;;;;;4858872;29;20495;-90
2023/04/27 01:53:31;;;;;;;15.48;10.98;;;1.70;99.90;;;;;;4859871;29;20530;-88
2023/04/27 01:56:00;;;;;;;14.00;10.80;;;1.80;99.90;;;;;;4873524;29;20515;-90
2023/04/27 01:58:26;;;;;;;14.20;10.15;;;1.80;99.90;;;;;;4860375;29;20423;-89
2023/04/27 02:00:52;;;;;;;14.15;10.68;;;1.80;99.90;;;;;;4857879;29;20423;-90
2023/04/27 02:03:20;;;;;;;13.40;10.65;;;1.80;99.90;;;;;;4844106;29;23469;-88
2023/04/27 02:05:46;;;;;;;17.83;11.40;;;1.80;99.90;;;;;;4858505;29;20509;-88
2023/04/27 02:08:12;;;;;;;16.33;11.63;;;1.80;99.90;;;;;;4874435;29;20541;-88
2023/04/27 02:10:38;;;;;;;20.15;13.02;;;1.80;99.90;;;;;;4859396;29;20467;-89
2023/04/27 02:13:04;;;;;;;17.23;11.23;;;1.80;99.90;;;;;;4858281;29;20532;-88
2023/04/27 02:15:29;;;;;;;17.50;12.40;;;1.80;99.90;;;;;;4875548;29;20893;-89
2023/04/27 02:17:57;;;;;;;12.00;9.80;;;1.80;99.90;;;;;;4857562;29;20433;-88
2023/04/27 02:20:23;;;;;;;18.02;12.27;;;1.70;99.90;;;;;;4874854;29;20486;-88
2023/04/27 02:22:48;;;;;;;17.17;12.20;;;1.80;99.90;;;;;;4857959;29;20904;-89
2023/04/27 02:25:14;;;;;;;15.27;10.57;;;1.80;99.90;;;;;;4859829;29;20499;-89
2023/04/27 02:27:40;;;;;;;14.13;10.33;;;1.80;99.90;;;;;;4858927;29;20554;-89
2023/04/27 02:30:08;;;;;;;13.80;10.52;;;1.90;99.90;;;;;;4873702;29;20924;-89
2023/04/27 02:32:33;;;;;;;13.85;10.95;;;1.90;99.90;;;;;;4859261;29;20423;-89
2023/04/27 02:34:59;;;;;;;15.30;10.90;;;1.90;99.90;;;;;;4857522;29;20935;-90
2023/04/27 02:37:25;;;;;;;15.27;10.63;;;1.90;99.90;;;;;;4859274;29;20427;-89
2023/04/27 02:39:51;;;;;;;19.30;12.63;;;2.20;99.90;;;;;;4857251;29;20442;-89
2023/04/27 02:42:17;;;;;;;14.15;11.00;;;2.00;99.90;;;;;;4859764;29;20432;-89
2023/04/27 02:44:42;;;;;;;18.58;13.30;;;2.00;99.90;;;;;;4873661;29;20490;-88
2023/04/27 02:47:08;;;;;;;20.83;13.57;;;2.10;99.90;;;;;;4858509;29;20435;-89
2023/04/27 02:49:34;;;;;;;19.08;14.45;;;2.10;99.90;;;;;;4859090;29;20949;-88
2023/04/27 02:52:00;;;;;;;19.03;13.43;;;2.10;99.90;;;;;;4873395;29;20467;-89
2023/04/27 02:54:25;;;;;;;17.40;12.73;;;2.10;99.90;;;;;;4874853;29;20494;-89
2023/04/27 02:56:51;;;;;;;16.85;12.15;;;2.20;99.90;;;;;;4857550;29;20419;-89
2023/04/27 02:59:16;;;;;;;19.65;13.70;;;2.20;99.90;;;;;;4859397;29;20417;-88
2023/04/27 03:01:42;;;;;;;19.00;13.33;;;2.20;99.90;;;;;;4858040;29;20430;-88
2023/04/27 03:04:08;;;;;;;18.97;13.13;;;2.30;99.90;;;;;;4858893;29;20430;-88
2023/04/27 03:06:33;;;;;;;16.27;12.18;;;2.30;99.90;;;;;;4873897;29;20446;-89
2023/04/27 03:08:59;;;;;;;15.02;11.52;;;2.30;99.90;;;;;;4857998;29;20809;-90
2023/04/27 03:11:25;;;;;;;17.20;13.25;;;2.30;99.90;;;;;;4859001;29;20863;-89
2023/04/27 03:13:50;;;;;;;18.37;12.67;;;2.40;99.90;;;;;;4873406;29;20478;-89
2023/04/27 03:16:16;;;;;;;18.50;12.32;;;2.30;99.90;;;;;;4878530;29;20438;-89
2023/04/27 03:18:41;;;;;;;17.90;12.80;;;2.30;99.90;;;;;;4860726;29;20414;-88
2023/04/27 03:21:11;;;;;;;18.23;12.83;;;2.30;99.90;;;;;;4878760;29;20491;-89
2023/04/27 03:23:38;;;;;;;19.85;13.82;;;2.30;99.90;;;;;;4877098;29;20900;-89
2023/04/27 03:26:07;;;;;;;18.85;13.75;;;2.30;99.90;;;;;;4862025;29;20410;-88
2023/04/27 03:28:33;;;;;;;20.77;14.30;;;2.30;99.90;;;;;;4877773;29;20450;-89
2023/04/27 03:31:00;;;;;;;16.98;12.55;;;2.20;99.90;;;;;;4876384;29;20482;-90
2023/04/27 03:33:27;;;;;;;18.77;13.48;;;2.20;99.90;;;;;;4862557;29;20453;-90
2023/04/27 03:35:56;;;;;;;15.63;11.70;;;2.10;99.90;;;;;;4875830;29;20422;-90
2023/04/27 03:38:23;;;;;;;19.38;12.88;;;2.10;99.90;;;;;;4878024;29;20497;-89
2023/04/27 03:40:49;;;;;;;19.00;13.13;;;2.00;99.90;;;;;;4876657;29;20828;-88
2023/04/27 03:43:15;;;;;;;17.77;12.53;;;2.00;99.90;;;;;;4877661;29;20443;-89
2023/04/27 03:45:41;;;;;;;23.33;13.87;;;1.90;99.90;;;;;;4862373;29;20466;-88
2023/04/27 03:48:06;;;;;;;23.30;15.83;;;1.80;99.90;;;;;;4860888;29;20948;-89
2023/04/27 03:50:32;;;;;;;16.48;12.60;;;1.80;99.90;;;;;;4862065;29;20865;-89
2023/04/27 03:52:58;;;;;;;16.65;12.40;;;1.80;99.90;;;;;;4860302;29;20746;-89
2023/04/27 03:55:24;;;;;;;18.13;12.38;;;1.70;99.90;;;;;;4862461;29;20847;-89
2023/04/27 03:57:50;;;;;;;17.50;12.02;;;1.70;99.90;;;;;;4875532;29;20415;-89
2023/04/27 04:00:17;;;;;;;17.02;12.70;;;1.60;99.90;;;;;;4862035;29;20431;-89
2023/04/27 04:02:43;;;;;;;18.85;13.20;;;1.60;99.90;;;;;;4861046;29;20804;-88
2023/04/27 04:05:09;;;;;;;19.20;14.05;;;1.50;99.90;;;;;;4876565;29;20423;-89
2023/04/27 04:07:34;;;;;;;16.52;11.82;;;1.50;99.90;;;;;;4861916;29;20545;-89
2023/04/27 04:10:01;;;;;;;20.17;13.32;;;1.50;99.90;;;;;;4875339;29;20789;-89
2023/04/27 04:12:26;;;;;;;22.50;14.83;;;1.40;99.90;;;;;;4862049;29;20419;-88
2023/04/27 04:14:52;;;;;;;17.50;12.90;;;1.40;99.90;;;;;;4859578;29;20433;-89
2023/04/27 04:17:18;;;;;;;18.87;13.33;;;1.40;99.90;;;;;;4862050;29;20527;-90
2023/04/27 04:19:43;;;;;;;24.20;13.70;;;1.30;99.90;;;;;;4860411;29;20700;-89
2023/04/27 04:22:09;;;;;;;17.65;12.50;;;1.30;99.90;;;;;;4861201;29;20508;-90
2023/04/27 04:24:35;;;;;;;19.60;13.90;;;1.30;99.90;;;;;;4860577;29;20431;-88
2023/04/27 04:27:01;;;;;;;19.73;13.80;;;1.30;99.90;;;;;;4860126;29;20447;-89
2023/04/27 04:29:27;;;;;;;18.95;13.20;;;1.30;99.90;;;;;;4861774;29;20415;-89
2023/04/27 04:31:55;;;;;;;16.50;11.90;;;1.30;99.90;;;;;;4859747;29;21045;-90
2023/04/27 04:34:21;;;;;;;19.75;14.60;;;1.30;99.90;;;;;;4876523;29;20439;-89
2023/04/27 04:36:50;;;;;;;19.87;13.50;;;1.30;99.90;;;;;;4859484;29;20423;-89
2023/04/27 04:39:17;;;;;;;16.60;12.70;;;1.30;99.90;;;;;;4876819;29;20511;-90
2023/04/27 04:41:43;;;;;;;19.75;14.52;;;1.30;99.90;;;;;;4876285;29;20842;-88
2023/04/27 04:44:08;;;;;;;18.13;13.52;;;1.30;99.90;;;;;;4875334;29;20427;-88
2023/04/27 04:46:36;;;;;;;25.17;15.27;;;1.40;99.90;;;;;;4876793;29;20743;-89
2023/04/27 04:49:01;;;;;;;15.98;12.32;;;1.50;99.90;;;;;;4859280;29;20449;-88
2023/04/27 04:51:27;;;;;;;18.57;12.70;;;1.50;99.90;;;;;;4877094;29;20518;-89
2023/04/27 04:53:53;;;;;;;16.50;11.70;;;1.60;99.90;;;;;;4874275;29;20403;-89
2023/04/27 04:56:18;;;;;;;17.13;12.50;;;1.60;99.90;;;;;;4876671;29;20415;-88
2023/04/27 04:58:44;;;;;;;16.08;11.88;;;1.70;99.90;;;;;;4875236;29;20419;-89
2023/04/27 05:01:09;;;;;;;21.13;13.30;;;1.70;99.90;;;;;;4875923;29;20526;-89
2023/04/27 05:03:35;;;;;;;16.27;12.67;;;1.80;99.90;;;;;;4860432;29;20427;-88
2023/04/27 05:06:00;;;;;;;18.25;13.32;;;1.80;99.90;;;;;;4874959;29;21019;-89
2023/04/27 05:08:26;;;;;;;17.80;13.03;;;1.80;99.90;;;;;;4876063;29;20439;-89
2023/04/27 05:10:52;;;;;;;18.77;13.13;;;1.80;99.90;;;;;;4874255;29;20498;-89
2023/04/27 05:13:19;;;;;;;19.40;13.80;;;1.80;99.90;;;;;;4876481;29;20415;-89
2023/04/27 05:15:45;;;;;;;18.73;12.32;;;1.90;99.90;;;;;;4858869;29;20419;-88
2023/04/27 05:18:11;;;;;;;17.07;12.43;;;1.90;99.90;;;;;;4876248;29;20419;-89
2023/04/27 05:20:37;;;;;;;21.33;13.07;;;1.90;99.90;;;;;;4874890;29;20407;-88
2023/04/27 05:23:03;;;;;;;16.23;12.45;;;2.00;99.90;;;;;;4859524;29;20478;-88
2023/04/27 05:25:30;;;;;;;16.92;12.25;;;2.10;99.90;;;;;;4859279;29;20448;-88
2023/04/27 05:27:55;;;;;;;16.08;11.75;;;2.10;99.90;;;;;;4839977;29;20456;-89
2023/04/27 05:30:21;;;;;;;18.80;12.05;;;2.10;99.90;;;;;;4841638;29;20425;-88
2023/04/27 05:32:47;;;;;;;17.17;11.63;;;2.10;99.90;;;;;;4838624;29;20413;-89
2023/04/27 05:35:12;;;;;;;18.93;11.87;;;2.10;99.90;;;;;;4845965;29;20526;-89
2023/04/27 05:37:38;;;;;;;16.73;11.83;;;2.10;99.90;;;;;;4845361;29;20424;-89
2023/04/27 05:40:05;;;;;;;16.83;12.05;;;2.10;99.90;;;;;;4840430;29;20447;-90
2023/04/27 05:42:31;;;;;;;19.05;12.93;;;2.10;99.90;;;;;;4855653;29;20439;-88
2023/04/27 05:44:56;;;;;;;18.42;12.18;;;2.20;99.90;;;;;;4839935;29;20413;-89
2023/04/27 05:47:22;;;;;;;15.00;11.50;;;2.20;99.90;;;;;;4842560;29;20445;-89
2023/04/27 05:49:51;;;;;;;17.33;11.10;;;2.30;99.90;;;;;;4839341;29;20507;-89
2023/04/27 05:52:20;;;;;;;15.82;10.95;;;2.40;99.90;;;;;;4856944;29;20432;-88
2023/04/27 05:54:47;;;;;;;14.18;10.00;;;2.50;99.90;;;;;;4855065;29;20409;-88
2023/04/27 05:57:13;;;;;;;13.80;9.57;;;2.60;99.90;;;;;;4841535;29;20432;-90
2023/04/27 05:59:38;;;;;;;15.67;10.23;;;2.80;99.90;;;;;;4840696;29;20421;-89
2023/04/27 06:02:04;;;;;;;15.17;9.47;;;3.10;99.90;;;;;;4840563;29;20524;-87
2023/04/27 06:04:31;;;;;;;11.10;8.57;;;3.20;99.90;;;;;;4841670;29;20427;-90
2023/04/27 06:06:57;;;;;;;12.33;9.03;;;3.40;99.90;;;;;;4854788;29;20452;-89
2023/04/27 06:09:22;;;;;;;10.70;8.07;;;3.60;99.90;;;;;;4856776;29;20448;-89
2023/04/27 06:11:48;;;;;;;10.93;7.63;;;3.80;99.90;;;;;;4839131;29;20758;-90
2023/04/27 06:14:14;;;;;;;9.20;7.63;;;3.90;99.90;;;;;;4841290;29;20425;-90
2023/04/27 06:16:39;;;;;;;11.70;7.80;;;4.10;99.90;;;;;;4854826;29;20420;-89
2023/04/27 06:19:06;;;;;;;10.50;8.00;;;4.40;99.90;;;;;;4855930;29;20454;-89
2023/04/27 06:21:32;;;;;;;8.52;6.82;;;4.50;99.90;;;;;;4841197;29;20520;-89
2023/04/27 06:23:58;;;;;;;9.85;6.82;;;4.70;99.90;;;;;;4835973;29;20749;-89
2023/04/27 06:26:24;;;;;;;9.35;6.55;;;4.80;99.90;;;;;;4822545;29;20453;-90
2023/04/27 06:28:50;;;;;;;10.93;6.38;;;5.00;99.90;;;;;;4835184;29;20952;-89
2023/04/27 06:31:16;;;;;;;9.07;5.38;;;5.20;99.90;;;;;;4837909;29;20994;-88
2023/04/27 06:33:41;;;;;;;6.65;4.53;;;5.40;99.90;;;;;;4848205;29;20437;-88
2023/04/27 06:36:07;;;;;;;8.57;5.30;;;5.60;99.90;;;;;;4853292;29;21017;-88
2023/04/27 06:38:33;;;;;;;6.55;4.70;;;5.70;99.90;;;;;;4839129;29;20511;-88
2023/04/27 06:40:58;;;;;;;9.13;5.20;;;5.90;99.90;;;;;;4853795;29;20428;-88
2023/04/27 06:43:24;;;;;;;7.20;4.85;;;6.10;99.90;;;;;;4855429;29;20412;-88
2023/04/27 06:45:50;;;;;;;6.57;4.70;;;6.30;99.90;;;;;;4853379;29;20479;-88
2023/04/27 06:48:16;;;;;;;6.63;4.27;;;6.50;99.90;;;;;;4838992;29;20458;-89
2023/04/27 06:50:42;;;;;;;6.23;4.60;;;6.60;99.90;;;;;;4853620;29;20507;-89
2023/04/27 06:53:08;;;;;;;6.10;3.85;;;6.80;99.90;;;;;;4856561;29;20443;-88
2023/04/27 06:55:34;;;;;;;6.50;3.97;;;6.90;99.90;;;;;;4854461;29;20428;-88
2023/04/27 06:58:01;;;;;;;5.25;3.75;;;7.10;99.90;;;;;;4840511;29;20436;-89
2023/04/27 07:00:27;;;;;;;6.25;3.10;;;7.30;99.90;;;;;;4840908;29;20768;-87
2023/04/27 07:02:53;;;;;;;4.03;2.20;;;7.50;99.90;;;;;;4854544;29;20416;-91
2023/04/27 07:05:18;;;;;;;4.80;2.25;;;7.50;99.90;;;;;;4857122;29;20831;-89
2023/04/27 07:07:44;;;;;;;5.53;2.30;;;7.60;99.90;;;;;;4855354;29;20444;-90
2023/04/27 07:10:10;;;;;;;5.57;2.20;;;7.80;99.90;;;;;;4857006;29;20436;-91
2023/04/27 07:12:36;;;;;;;3.92;1.90;;;7.90;99.90;;;;;;4855240;29;20420;-90
2023/04/27 07:15:05;;;;;;;4.60;2.25;;;8.10;99.90;;;;;;4857440;29;20424;-89
2023/04/27 07:17:31;;;;;;;4.15;1.92;;;8.30;99.90;;;;;;4856137;29;20428;-90
2023/04/27 07:19:57;;;;;;;4.10;1.30;;;8.40;99.90;;;;;;4841068;29;20511;-89
2023/04/27 07:22:23;;;;;;;4.03;1.08;;;8.50;99.90;;;;;;4841654;29;21014;-90
2023/04/27 07:24:49;;;;;;;3.67;1.00;;;8.60;99.60;;;;;;4854497;29;20409;-89
2023/04/27 07:27:14;;;;;;;2.85;0.70;;;8.70;94.20;;;;;;4857202;29;20459;-89
2023/04/27 07:29:41;;;;;;;2.00;0.50;;;8.90;83.10;;;;;;4855327;29;20498;-90
2023/04/27 07:32:07;;;;;;;1.70;0.60;;;8.80;82.40;;;;;;4857013;29;20423;-89
2023/04/27 07:34:33;;;;;;;2.55;0.90;;;8.90;81.20;;;;;;4840631;29;20428;-89
2023/04/27 07:37:00;;;;;;;3.63;0.85;;;9.00;90.10;;;;;;4856306;29;20419;-90
2023/04/27 07:39:26;;;;;;;3.45;0.82;;;9.10;92.30;;;;;;4856630;29;20475;-89
2023/04/27 07:41:52;;;;;;;2.05;0.70;;;9.20;82.30;;;;;;4854977;29;20424;-89
2023/04/27 07:44:19;;;;;;;2.90;0.73;;;9.30;79.40;;;;;;4857210;29;20462;-89
2023/04/27 07:46:48;;;;;;;3.20;0.90;;;9.40;77.50;;;;;;4839392;29;20424;-89
2023/04/27 07:49:15;;;;;;;3.75;0.70;;;9.50;79.30;;;;;;4856400;29;20449;-90
2023/04/27 07:51:41;;;;;;;3.05;0.70;;;9.50;73.10;;;;;;4854877;29;20900;-89
2023/04/27 07:54:07;;;;;;;2.88;0.85;;;9.70;67.30;;;;;;4856308;29;20893;-89
2023/04/27 07:56:33;;;;;;;2.20;0.70;;;9.80;71.80;;;;;;4840739;29;20409;-88
2023/04/27 07:58:59;;;;;;;3.77;0.90;;;9.80;73.30;;;;;;4855441;29;20417;-89
2023/04/27 08:01:25;;;;;;;2.47;0.80;;;9.90;77.70;;;;;;4859206;29;20443;-90
2023/04/27 08:03:50;;;;;;;2.78;0.80;;;10.30;69.40;;;;;;4857480;29;20465;-89
2023/04/27 08:06:17;;;;;;;3.17;1.20;;;10.40;63.00;;;;;;4859790;29;20417;-89
2023/04/27 08:08:43;;;;;;;2.33;0.80;;;10.00;65.70;;;;;;4857420;29;21192;-89
2023/04/27 08:11:10;;;;;;;2.27;1.00;;;10.10;60.20;;;;;;4843872;29;20493;-89
2023/04/27 08:13:36;;;;;;;3.20;0.90;;;10.20;63.20;;;;;;4858157;29;20424;-89
2023/04/27 08:16:01;;;;;;;3.93;1.40;;;10.20;62.20;;;;;;4843138;29;20515;-89
2023/04/27 08:18:27;;;;;;;2.70;1.10;;;10.20;58.40;;;;;;4859610;29;20523;-89
2023/04/27 08:20:53;;;;;;;4.18;1.25;;;10.30;61.40;;;;;;4842601;29;20413;-90
2023/04/27 08:23:19;;;;;;;3.70;1.30;;;10.40;60.50;;;;;;4859732;29;20431;-90
2023/04/27 08:25:45;;;;;;;3.30;1.50;;;10.40;60.70;;;;;;4841826;29;20433;-90
2023/04/27 08:28:11;;;;;;;3.95;1.55;;;10.50;65.50;;;;;;4859707;29;20456;-90
2023/04/27 08:30:36;;;;;;;4.60;1.60;;;10.60;58.30;;;;;;4841955;29;20425;-88
2023/04/27 08:33:02;;;;;;;3.10;1.40;;;10.70;58.70;;;;;;4859282;29;20457;-89
2023/04/27 08:35:28;;;;;;;2.83;1.60;;;10.70;61.90;;;;;;4843718;29;20417;-88
2023/04/27 08:37:53;;;;;;;3.33;1.42;;;10.90;59.70;;;;;;4842469;29;20504;-89
2023/04/27 08:40:19;;;;;;;3.87;1.20;;;11.00;61.60;;;;;;4843914;29;20783;-90
2023/04/27 08:42:58;;;;;;;4.50;1.83;;;11.00;58.90;;;;;;4841659;29;20496;-90
2023/04/27 08:45:26;;;;;;;3.58;1.88;;;11.10;58.30;;;;;;4859204;29;20424;-90
2023/04/27 08:47:52;;;;;;;4.20;1.58;;;11.20;60.80;;;;;;4842056;29;20808;-90
2023/04/27 08:50:18;;;;;;;3.15;1.60;;;11.20;58.60;;;;;;4843509;29;20424;-90
2023/04/27 08:52:45;;;;;;;2.67;1.60;;;11.30;60.80;;;;;;4842712;29;20417;-90
2023/04/27 08:55:11;;;;;;;5.38;1.50;;;11.50;61.90;;;;;;4857816;29;20480;-91
2023/04/27 08:57:36;;;;;;;4.30;1.50;;;11.60;58.10;;;;;;4858886;29;20457;-90
2023/04/27 09:00:11;;;;;;;3.03;1.20;;;11.90;56.10;;;;;;4841509;29;20424;-89
2023/04/27 09:02:42;;;;;;;3.80;1.20;;;11.80;53.00;;;;;;4843682;29;20590;-89
2023/04/27 09:05:15;;;;;;;3.85;1.42;;;11.70;52.20;;;;;;4841537;29;20425;-89
2023/04/27 09:07:40;;;;;;;3.50;1.20;;;11.70;58.30;;;;;;4858411;29;20444;-89
2023/04/27 09:10:07;;;;;;;3.30;1.10;;;11.70;55.20;;;;;;4857788;29;20441;-90
2023/04/27 09:12:33;;;;;;;2.78;1.00;;;11.80;53.60;;;;;;4857300;29;20421;-90
2023/04/27 09:15:05;;;;;;;2.75;1.17;;;12.10;53.80;;;;;;4858760;29;20514;-90
2023/04/27 09:17:32;;;;;;;4.63;1.17;;;12.00;54.30;;;;;;4841408;29;20421;-90
2023/04/27 09:20:12;;;;;;;3.70;1.20;;;12.20;52.00;;;;;;4843509;29;20424;-93
2023/04/27 09:22:46;;;;;;;4.03;1.20;;;12.30;51.60;;;;;;4856687;29;20421;-88
2023/04/27 09:25:26;;;;;;;3.53;1.50;;;12.40;49.50;;;;;;4857809;29;20421;-90
2023/04/27 09:27:52;;;;;;;3.50;1.70;;;12.50;54.20;;;;;;4842757;29;20480;-89
2023/04/27 09:30:19;;;;;;;3.38;1.90;;;12.60;53.40;;;;;;4856314;29;20929;-90
2023/04/27 09:32:52;;;;;;;4.20;1.80;;;12.70;53.60;;;;;;4843258;29;20920;-89
2023/04/27 09:35:21;;;;;;;5.47;2.10;;;12.70;52.80;;;;;;4840705;29;20425;-89
2023/04/27 09:37:50;;;;;;;5.65;2.10;;;12.70;53.00;;;;;;4858097;29;20507;-90
2023/04/27 09:40:18;;;;;;;4.25;2.65;;;12.90;53.30;;;;;;4857153;29;20427;-89
2023/04/27 09:42:44;;;;;;;5.72;3.00;;;13.10;53.30;;;;;;4842073;29;20436;-90
2023/04/27 09:45:10;;;;;;;6.60;3.90;;;13.20;50.10;;;;;;4858303;29;20829;-90
2023/04/27 09:47:37;;;;;;;6.40;4.10;;;13.20;54.00;;;;;;4840495;29;20440;-90
2023/04/27 09:50:05;;;;;;;6.45;3.75;;;13.20;52.50;;;;;;4858090;29;20481;-89
2023/04/27 09:52:31;;;;;;;6.40;3.55;;;13.20;53.00;;;;;;4855989;29;20428;-90
2023/04/27 09:54:59;;;;;;;6.13;3.40;;;13.60;52.50;;;;;;4858075;29;20508;-90
2023/04/27 09:58:09;;;;;;;6.18;2.97;;;13.50;53.20;;;;;;4856373;29;20456;-89
2023/04/27 10:00:58;;;;;;;4.28;2.40;;;13.60;52.60;;;;;;4840876;29;20914;-90
2023/04/27 10:03:31;;;;;;;5.15;3.15;;;13.80;51.80;;;;;;4842693;29;20427;-90
2023/04/27 10:06:31;;;;;;;3.08;1.90;;;14.00;54.50;;;;;;4856251;29;20423;-90
2023/04/27 10:08:58;;;;;;;5.10;2.80;;;14.20;51.30;;;;;;4840654;29;21021;-89
2023/04/27 10:11:40;;;;;;;4.80;2.72;;;14.50;48.80;;;;;;4857510;29;20443;-90
2023/04/27 10:14:08;;;;;;;5.13;3.10;;;14.70;48.30;;;;;;4839917;29;20424;-89
2023/04/27 10:16:56;;;;;;;4.65;2.80;;;15.30;50.30;;;;;;4842224;29;20967;-89
2023/04/27 10:19:23;;;;;;;6.35;3.03;;;15.10;46.30;;;;;;4841351;29;20428;-90
2023/04/27 10:21:59;;;;;;;4.68;3.08;;;15.30;47.40;;;;;;4840683;29;20566;-90
2023/04/27 10:24:41;;;;;;;5.10;3.30;;;15.60;45.20;;;;;;4857664;29;20541;-90
2023/04/27 10:27:14;;;;;;;4.87;3.23;;;16.00;45.70;;;;;;4840078;29;20428;-90
2023/04/27 10:29:43;;;;;;;5.90;3.40;;;16.20;45.30;;;;;;4842488;29;20429;-90
2023/04/27 10:32:11;;;;;;;4.43;2.95;;;16.20;45.70;;;;;;4840753;29;20422;-90
2023/04/27 10:34:37;;;;;;;5.63;2.90;;;16.70;45.50;;;;;;4856296;29;20424;-91
2023/04/27 10:37:08;;;;;;;4.65;3.10;;;16.50;44.30;;;;;;4856918;29;20755;-90
2023/04/27 10:39:36;;;;;;;3.80;2.70;;;16.60;45.50;;;;;;4843831;29;20443;-89
2023/04/27 10:42:02;;;;;;;4.90;2.83;;;16.50;43.00;;;;;;4857096;29;20420;-90
2023/04/27 10:44:30;;;;;;;5.07;2.65;;;16.30;42.90;;;;;;4839785;29;20412;-90
2023/04/27 10:46:58;;;;;;;2.60;2.33;;;16.10;44.20;;;;;;4842193;29;20429;-91
2023/04/27 10:49:27;;;;;;;3.92;2.50;;;16.10;44.00;;;;;;4840222;29;20978;-91
2023/04/27 10:51:52;;;;;;;6.05;2.75;;;16.00;44.50;;;;;;4856325;29;20559;-91
2023/04/27 10:54:18;;;;;;;4.60;2.90;;;15.70;43.90;;;;;;4842034;29;20490;-91
2023/04/27 10:56:44;;;;;;;4.32;2.63;;;15.90;44.80;;;;;;4840471;29;20417;-91
2023/04/27 10:59:10;;;;;;;7.57;2.90;;;15.60;44.80;;;;;;4857952;29;20497;-91
2023/04/27 11:01:36;;;;;;;4.27;2.70;;;15.60;44.10;;;;;;4839412;29;20977;-91
2023/04/27 11:04:03;;;;;;;5.43;2.70;;;15.60;45.50;;;;;;4842341;29;20417;-90
2023/04/27 11:06:32;;;;;;;4.63;2.30;;;15.70;45.70;;;;;;4840011;29;20476;-90
2023/04/27 11:08:57;;;;;;;4.82;2.70;;;15.80;46.40;;;;;;4853784;29;20452;-90
2023/04/27 11:11:24;;;;;;;5.20;2.58;;;15.80;44.10;;;;;;4855296;29;20564;-90
2023/04/27 11:13:53;;;;;;;6.03;3.23;;;15.80;45.20;;;;;;4867613;29;20469;-91
2023/04/27 11:16:18;;;;;;;5.22;3.03;;;15.70;47.40;;;;;;4872571;29;20467;-88
2023/04/27 11:18:44;;;;;;;4.00;2.80;;;15.10;47.00;;;;;;4872987;29;20459;-90
2023/04/27 11:21:15;;;;;;;5.53;3.35;;;14.70;47.50;;;;;;4875742;29;20441;-88
2023/04/27 11:23:42;;;;;;;5.30;3.65;;;14.50;47.30;;;;;;4854266;29;20427;-90
2023/04/27 11:26:20;;;;;;;7.80;3.50;;;14.60;50.30;;;;;;4856475;29;20428;-90
2023/04/27 11:29:08;;;;;;;5.10;3.50;;;14.20;48.00;;;;;;4856619;29;20444;-89
2023/04/27 11:31:42;;;;;;;5.85;3.65;;;14.20;49.30;;;;;;4855090;29;20436;-90
2023/04/27 11:34:13;;;;;;;5.28;3.28;;;14.10;47.50;;;;;;4841823;29;20436;-90
2023/04/27 11:36:38;;;;;;;7.82;3.65;;;14.10;49.40;;;;;;4855483;29;20781;-89
2023/04/27 11:39:05;;;;;;;5.83;3.60;;;14.00;50.40;;;;;;4857134;29;20426;-88
2023/04/27 11:41:35;;;;;;;5.93;3.70;;;14.00;49.30;;;;;;4858482;29;20425;-89
2023/04/27 11:44:06;;;;;;;4.93;3.67;;;13.90;50.70;;;;;;4859051;29;20417;-91
2023/04/27 11:46:36;;;;;;;4.85;3.35;;;13.90;52.10;;;;;;4860304;29;20425;-89
2023/04/27 11:49:05;;;;;;;5.25;3.25;;;13.90;49.80;;;;;;4857984;29;20448;-90
2023/04/27 11:51:32;;;;;;;5.00;3.50;;;13.70;50.60;;;;;;4860600;29;20464;-92
2023/04/27 11:54:02;;;;;;;5.40;3.00;;;13.70;50.40;;;;;;4858378;29;20424;-88
2023/04/27 11:56:41;;;;;;;6.57;3.28;;;13.80;50.90;;;;;;4859777;29;20417;-92
2023/04/27 11:59:21;;;;;;;6.13;3.60;;;13.90;50.20;;;;;;4859885;29;20435;-90
2023/04/27 12:01:47;;;;;;;4.53;2.55;;;13.80;50.60;;;;;;4837718;29;20802;-91
2023/04/27 12:04:13;;;;;;;4.18;2.03;;;13.90;54.90;;;;;;4860015;29;20421;-90
2023/04/27 12:06:39;;;;;;;3.57;2.37;;;13.80;56.40;;;;;;4857943;29;20425;-90
2023/04/27 12:09:05;;;;;;;4.78;2.25;;;13.80;61.50;;;;;;4859953;29;20448;-90
2023/04/27 12:11:31;;;;;;;4.70;2.43;;;13.90;60.40;;;;;;4858349;29;20480;-90
2023/04/27 12:13:57;;;;;;;3.80;2.20;;;14.10;65.90;;;;;;4859251;29;20440;-91
2023/04/27 12:16:23;;;;;;;5.00;2.40;;;14.00;60.50;;;;;;4858931;29;20504;-89
2023/04/27 12:18:49;;;;;;;4.57;2.60;;;14.20;61.40;;;;;;4858409;29;20488;-91
2023/04/27 12:21:15;;;;;;;4.07;2.28;;;14.40;56.40;;;;;;4859858;29;20421;-91
2023/04/27 12:23:41;;;;;;;4.28;2.28;;;14.80;63.40;;;;;;4842532;29;20476;-89
2023/04/27 12:26:07;;;;;;;3.97;2.20;;;15.50;64.50;;;;;;4860244;29;20424;-91
2023/04/27 12:28:33;;;;;;;4.67;2.53;;;16.10;58.70;;;;;;4857675;29;20504;-90
2023/04/27 12:30:58;;;;;;;4.45;2.60;;;16.40;56.70;;;;;;4859205;29;20424;-92
2023/04/27 12:33:24;;;;;;;4.93;2.53;;;16.50;54.20;;;;;;4858368;29;20561;-89
2023/04/27 12:35:50;;;;;;;5.10;2.63;;;16.50;48.60;;;;;;4858179;29;20428;-91
2023/04/27 12:38:16;;;;;;;5.83;2.83;;;16.40;47.30;;;;;;4859345;29;20436;-89
2023/04/27 12:40:42;;;;;;;3.72;2.30;;;16.30;46.90;;;;;;4857467;29;20517;-91
2023/04/27 12:43:07;;;;;;;5.47;2.77;;;16.10;50.00;;;;;;4859730;29;20790;-90
2023/04/27 12:45:33;;;;;;;4.53;2.60;;;16.30;46.50;;;;;;4856779;29;21151;-91